createdAt,value
2022-10-24T00:00:32.046Z,77.50
2022-10-24T00:04:40.361Z,77.40
2022-10-24T00:08:43.775Z,77.80
2022-10-24T00:12:47.382Z,77.90
2022-10-24T00:16:50.435Z,78.10
2022-10-24T00:20:53.307Z,78.20
2022-10-24T00:24:56.315Z,78.50
2022-10-24T00:33:09.608Z,78.80
2022-10-24T00:37:12.608Z,78.70
2022-10-24T00:41:22.715Z,78.70
2022-10-24T00:45:38.004Z,79.10
2022-10-24T00:50:04.547Z,78.80
2022-10-24T00:54:08.954Z,78.50
2022-10-24T00:58:13.016Z,77.80
2022-10-24T01:02:16.603Z,78.60
2022-10-24T01:06:44.278Z,78.40
2022-10-24T01:11:18.583Z,78.60
2022-10-24T01:15:28.807Z,78.60
2022-10-24T01:19:38.309Z,78.60
2022-10-24T01:23:50.240Z,78.70
2022-10-24T01:28:07.886Z,78.50
2022-10-24T01:32:26.898Z,79.00
2022-10-24T01:36:44.117Z,79.30
2022-10-24T01:41:21.324Z,79.40
2022-10-24T01:45:36.570Z,79.30
2022-10-24T01:49:43.288Z,79.40
2022-10-24T01:53:46.957Z,79.50
2022-10-24T01:57:49.903Z,79.00
2022-10-24T02:02:29.027Z,79.80
2022-10-24T02:06:42.038Z,80.10
2022-10-24T02:10:51.085Z,80.20
2022-10-24T02:15:05.396Z,80.10
2022-10-24T02:19:08.366Z,80.20
2022-10-24T02:23:31.059Z,80.20
2022-10-24T02:27:43.087Z,80.40
2022-10-24T02:31:58.313Z,80.30
2022-10-24T02:36:03.474Z,81.00
2022-10-24T02:40:08.546Z,80.70
2022-10-24T02:44:15.394Z,80.70
2022-10-24T02:48:23.536Z,80.60
2022-10-24T02:52:27.079Z,80.30
2022-10-24T02:56:30.399Z,80.20
2022-10-24T03:00:33.750Z,80.30
2022-10-24T03:04:38.284Z,80.40
2022-10-24T03:08:41.693Z,80.40
2022-10-24T03:12:45.612Z,80.30
2022-10-24T03:16:48.899Z,80.30
2022-10-24T03:20:52.007Z,80.30
2022-10-24T03:24:55.583Z,80.40
2022-10-24T03:28:58.969Z,80.40
2022-10-24T03:33:01.936Z,80.50
2022-10-24T03:37:05.168Z,80.40
2022-10-24T03:41:08.228Z,80.50
2022-10-24T03:45:11.345Z,80.50
2022-10-24T03:49:14.280Z,80.40
2022-10-24T03:53:17.251Z,80.30
2022-10-24T04:01:24.770Z,80.30
2022-10-24T04:05:27.808Z,80.40
2022-10-24T04:09:30.680Z,80.30
2022-10-24T04:13:34.417Z,80.30
2022-10-24T04:17:37.961Z,80.30
2022-10-24T04:21:44.465Z,80.20
2022-10-24T04:25:55.202Z,80.10
2022-10-24T04:29:58.584Z,80.20
2022-10-24T04:34:17.915Z,80.20
2022-10-24T04:38:22.984Z,80.20
2022-10-24T04:42:27.431Z,80.10
2022-10-24T04:46:31.278Z,80.20
2022-10-24T04:50:34.494Z,80.10
2022-10-24T04:54:38.485Z,80.10
2022-10-24T04:58:44.873Z,80.00
2022-10-24T05:03:03.919Z,80.00
2022-10-24T05:07:13.335Z,79.90
2022-10-24T05:11:48.303Z,79.90
2022-10-24T05:16:10.689Z,79.90
2022-10-24T05:20:15.060Z,79.90
2022-10-24T05:24:21.164Z,80.00
2022-10-24T05:28:51.594Z,79.90
2022-10-24T05:33:02.451Z,79.80
2022-10-24T05:37:10.099Z,79.80
2022-10-24T05:41:15.653Z,79.90
2022-10-24T05:46:09.799Z,79.80
2022-10-24T05:50:37.646Z,79.90
2022-10-24T05:55:22.960Z,79.70
2022-10-24T05:59:35.242Z,79.70
2022-10-24T06:03:59.652Z,79.60
2022-10-24T06:08:15.358Z,79.70
2022-10-24T06:12:21.686Z,79.70
2022-10-24T06:16:35.084Z,79.60
2022-10-24T06:20:42.016Z,79.70
2022-10-24T06:29:57.806Z,79.70
2022-10-24T06:34:37.720Z,79.70
2022-10-24T06:39:03.284Z,79.70
2022-10-24T06:43:13.136Z,79.70
2022-10-24T06:47:41.745Z,79.60
2022-10-24T06:52:13.182Z,79.60
2022-10-24T07:01:48.001Z,79.30
2022-10-24T07:06:36.034Z,79.20
2022-10-24T07:11:16.141Z,79.30
2022-10-24T07:16:02.846Z,79.30
2022-10-24T07:21:00.139Z,79.30
2022-10-24T07:25:20.513Z,79.20
2022-10-24T07:30:32.072Z,79.10
2022-10-24T07:35:01.541Z,79.00
2022-10-24T07:39:25.163Z,78.90
2022-10-24T07:43:39.218Z,78.60
2022-10-24T07:48:02.158Z,78.40
2022-10-24T07:52:16.924Z,78.20
2022-10-24T07:56:38.370Z,78.00
2022-10-24T08:01:54.362Z,77.60
2022-10-24T08:06:12.126Z,77.50
2022-10-24T08:10:33.090Z,77.40
2022-10-24T08:14:48.745Z,76.10
2022-10-24T08:18:58.601Z,74.90
2022-10-24T08:23:15.062Z,73.20
2022-10-24T08:34:06.463Z,71.10
2022-10-24T08:39:02.455Z,70.30
2022-10-24T08:49:15.466Z,69.50
2022-10-24T11:53:34.451Z,63.30
2022-10-24T12:04:14.052Z,63.00
2022-10-24T12:08:40.338Z,63.30
2022-10-24T12:13:31.476Z,63.40
2022-10-24T12:17:59.303Z,62.30
2022-10-24T12:22:05.151Z,61.70
2022-10-24T12:26:27.017Z,61.50
2022-10-24T12:31:16.405Z,61.10
2022-10-24T12:35:38.993Z,60.50
2022-10-24T12:39:47.596Z,60.40
2022-10-24T12:43:51.079Z,60.00
2022-10-24T12:52:19.258Z,60.60
2022-10-24T12:56:23.875Z,61.00
2022-10-24T13:00:30.376Z,61.40
2022-10-24T13:04:58.018Z,60.60
2022-10-24T13:09:46.313Z,60.70
2022-10-24T13:14:01.435Z,61.00
2022-10-24T13:18:55.894Z,60.80
2022-10-24T13:23:06.170Z,61.00
2022-10-24T13:27:13.054Z,61.30
2022-10-24T13:31:19.171Z,61.50
2022-10-24T13:35:25.387Z,61.70
2022-10-24T13:39:40.336Z,60.70
2022-10-24T13:44:02.830Z,60.40
2022-10-24T13:49:01.962Z,60.10
2022-10-24T13:53:30.580Z,60.00
2022-10-24T13:57:40.540Z,60.30
2022-10-24T14:02:07.819Z,60.10
2022-10-24T14:06:16.843Z,60.00
2022-10-24T14:10:26.369Z,60.40
2022-10-24T14:14:37.572Z,60.90
2022-10-24T14:18:42.123Z,60.90
2022-10-24T14:22:48.526Z,61.20
2022-10-24T14:26:56.383Z,60.60
2022-10-24T14:31:20.685Z,60.60
2022-10-24T14:35:23.993Z,60.80
2022-10-24T14:39:27.697Z,60.90
2022-10-24T14:43:42.396Z,61.30
2022-10-24T14:47:52.779Z,61.40
2022-10-24T14:52:04.501Z,61.40
2022-10-24T14:56:29.688Z,61.50
2022-10-24T15:00:39.581Z,61.90
2022-10-24T15:04:47.221Z,62.20
2022-10-24T15:09:13.111Z,62.40
2022-10-24T15:13:47.955Z,62.70
2022-10-24T15:17:47.315Z,63.00
2022-10-24T15:21:55.978Z,63.50
2022-10-24T15:26:18.727Z,63.80
2022-10-24T15:30:23.135Z,63.90
2022-10-24T15:34:30.003Z,64.20
2022-10-24T15:38:37.644Z,64.40
2022-10-24T15:42:43.661Z,64.70
2022-10-24T15:46:52.132Z,65.00
2022-10-24T15:50:55.355Z,65.40
2022-10-24T15:55:02.807Z,65.80
2022-10-24T15:59:09.123Z,66.10
2022-10-24T16:03:17.973Z,66.50
2022-10-24T16:07:23.394Z,66.80
2022-10-24T16:13:14.791Z,67.30
2022-10-24T16:37:52.678Z,68.90
2022-10-24T16:46:58.534Z,69.10
2022-10-24T16:51:48.840Z,69.10
2022-10-24T16:56:11.990Z,69.10
2022-10-24T17:00:17.110Z,69.20
2022-10-24T17:04:22.630Z,69.20
2022-10-24T17:08:28.904Z,69.10
2022-10-24T17:12:33.383Z,69.10
2022-10-24T17:16:45.517Z,69.10
2022-10-24T17:20:48.979Z,69.20
2022-10-24T17:24:52.184Z,69.30
2022-10-24T17:28:57.817Z,69.40
2022-10-24T17:33:02.201Z,69.40
2022-10-24T17:37:19.273Z,69.50
2022-10-24T17:41:31.057Z,69.60
2022-10-24T17:45:39.657Z,69.80
2022-10-24T17:56:17.618Z,70.00
2022-10-24T18:00:38.981Z,70.00
2022-10-24T18:06:29.636Z,70.30
2022-10-24T18:29:03.867Z,71.20
2022-10-24T18:33:57.849Z,71.20
2022-10-24T18:38:09.583Z,71.20
2022-10-24T18:42:53.544Z,71.20
2022-10-24T18:47:24.743Z,71.20
2022-10-24T18:58:57.082Z,71.30
2022-10-24T19:03:15.334Z,71.70
2022-10-24T19:12:28.562Z,71.80
2022-10-24T19:17:27.680Z,71.90
2022-10-24T19:39:41.668Z,72.70
2022-10-24T19:43:50.979Z,73.10
2022-10-24T19:48:03.238Z,73.10
2022-10-24T19:52:09.245Z,72.90
2022-10-24T19:56:32.458Z,73.00
2022-10-24T20:00:59.097Z,73.00
2022-10-24T20:05:52.202Z,72.90
2022-10-24T20:14:30.965Z,73.00
2022-10-24T20:18:51.422Z,73.00
2022-10-24T20:23:01.547Z,73.00
2022-10-24T20:27:12.464Z,73.20
2022-10-24T20:31:46.920Z,73.40
2022-10-24T20:35:53.547Z,73.50
2022-10-24T20:40:14.682Z,73.70
2022-10-24T21:33:24.421Z,74.90
2022-10-24T21:37:43.215Z,75.00
2022-10-24T21:42:15.595Z,75.20
2022-10-24T21:47:16.998Z,75.30
2022-10-24T21:51:43.106Z,75.20
2022-10-24T21:56:35.674Z,75.50
2022-10-24T22:08:11.961Z,75.50
2022-10-24T22:12:40.363Z,75.60
2022-10-24T22:23:17.201Z,75.60
2022-10-24T22:28:13.230Z,75.50
2022-10-24T22:33:11.968Z,75.40
2022-10-24T22:38:53.234Z,75.30
2022-10-24T23:14:00.471Z,75.60
2022-10-24T23:24:03.711Z,75.50
2022-10-24T23:29:41.862Z,75.60
